createdAt,value
2022-11-14T00:00:12.880Z,3.70
2022-11-14T00:02:43.345Z,3.60
2022-11-14T00:05:11.745Z,3.60
2022-11-14T00:07:39.823Z,3.50
2022-11-14T00:10:07.833Z,3.50
2022-11-14T00:12:34.839Z,3.50
2022-11-14T00:15:03.665Z,3.50
2022-11-14T00:17:33.006Z,3.50
2022-11-14T00:19:59.905Z,3.50
2022-11-14T00:22:28.440Z,3.60
2022-11-14T00:24:55.251Z,3.50
2022-11-14T00:27:23.310Z,3.60
2022-11-14T00:29:50.686Z,3.60
2022-11-14T00:32:25.668Z,3.90
2022-11-14T00:34:55.046Z,3.70
2022-11-14T00:37:29.553Z,3.70
2022-11-14T00:39:57.480Z,3.70
2022-11-14T00:42:24.327Z,3.80
2022-11-14T00:44:53.886Z,3.80
2022-11-14T00:47:24.786Z,3.90
2022-11-14T00:49:58.660Z,4.00
2022-11-14T00:52:26.016Z,3.90
2022-11-14T00:55:01.599Z,3.90
2022-11-14T00:57:31.518Z,3.80
2022-11-14T00:59:58.336Z,3.80
2022-11-14T01:02:25.613Z,3.80
2022-11-14T01:04:52.941Z,3.80
2022-11-14T01:07:20.272Z,3.80
2022-11-14T01:09:48.662Z,3.80
2022-11-14T01:12:16.952Z,3.80
2022-11-14T01:14:45.279Z,3.80
2022-11-14T01:17:12.705Z,3.80
2022-11-14T01:19:39.716Z,3.80
2022-11-14T01:22:07.122Z,3.70
2022-11-14T01:24:34.653Z,3.70
2022-11-14T01:27:03.913Z,3.70
2022-11-14T01:29:32.112Z,3.80
2022-11-14T01:31:59.569Z,3.80
2022-11-14T01:34:26.803Z,3.90
2022-11-14T01:36:54.208Z,3.90
2022-11-14T01:39:24.871Z,3.80
2022-11-14T01:41:54.798Z,3.80
2022-11-14T01:44:51.672Z,3.70
2022-11-14T01:47:25.609Z,3.80
2022-11-14T01:49:59.529Z,3.70
2022-11-14T01:52:36.042Z,3.80
2022-11-14T01:55:08.341Z,3.80
2022-11-14T01:57:39.984Z,3.80
2022-11-14T02:00:11.772Z,3.70
2022-11-14T02:02:41.606Z,3.70
2022-11-14T02:05:12.389Z,3.70
2022-11-14T02:07:40.777Z,3.60
2022-11-14T02:10:13.901Z,3.60
2022-11-14T02:12:41.298Z,3.60
2022-11-14T02:15:10.048Z,3.70
2022-11-14T02:17:37.752Z,3.60
2022-11-14T02:20:11.265Z,3.60
2022-11-14T02:22:41.018Z,3.60
2022-11-14T02:25:12.361Z,3.60
2022-11-14T02:27:42.328Z,3.70
2022-11-14T02:30:12.929Z,3.70
2022-11-14T02:33:08.723Z,3.60
2022-11-14T02:35:28.230Z,3.70
2022-11-14T02:37:55.607Z,3.60
2022-11-14T02:40:22.577Z,3.60
2022-11-14T02:42:49.705Z,3.60
2022-11-14T02:45:18.034Z,3.70
2022-11-14T02:47:44.822Z,3.70
2022-11-14T02:50:11.732Z,3.70
2022-11-14T02:52:39.256Z,3.60
2022-11-14T02:55:07.907Z,3.70
2022-11-14T02:57:35.476Z,3.60
2022-11-14T03:00:13.324Z,3.60
2022-11-14T03:02:42.087Z,3.60
2022-11-14T03:05:09.472Z,3.60
2022-11-14T03:07:40.916Z,3.60
2022-11-14T03:10:09.711Z,3.70
2022-11-14T03:12:37.571Z,3.60
2022-11-14T03:15:08.287Z,3.50
2022-11-14T03:17:36.086Z,3.60
2022-11-14T03:20:03.613Z,3.60
2022-11-14T03:22:33.160Z,3.70
2022-11-14T03:25:01.465Z,3.70
2022-11-14T03:27:31.000Z,3.90
2022-11-14T03:29:58.101Z,3.80
2022-11-14T03:32:25.460Z,3.80
2022-11-14T03:34:53.315Z,3.70
2022-11-14T03:37:21.660Z,3.90
2022-11-14T03:39:49.120Z,3.80
2022-11-14T03:42:16.212Z,3.80
2022-11-14T03:44:44.611Z,3.90
2022-11-14T03:47:11.356Z,3.90
2022-11-14T03:49:38.820Z,3.90
2022-11-14T03:52:05.747Z,4.00
2022-11-14T03:54:33.698Z,4.10
2022-11-14T03:57:01.526Z,4.10
2022-11-14T03:59:29.934Z,4.10
2022-11-14T04:01:57.214Z,4.10
2022-11-14T04:04:24.176Z,4.20
2022-11-14T04:07:32.237Z,4.20
2022-11-14T04:10:00.088Z,4.20
2022-11-14T04:12:28.442Z,4.20
2022-11-14T04:14:59.145Z,4.30
2022-11-14T04:17:29.017Z,4.40
2022-11-14T04:19:58.978Z,4.50
2022-11-14T04:22:26.277Z,4.70
2022-11-14T04:24:53.579Z,4.80
2022-11-14T04:27:20.352Z,4.50
2022-11-14T04:29:47.593Z,4.60
2022-11-14T04:32:18.805Z,4.60
2022-11-14T04:34:47.736Z,4.70
2022-11-14T04:37:14.882Z,4.50
2022-11-14T04:39:42.166Z,4.50
2022-11-14T04:42:08.994Z,4.40
2022-11-14T04:44:42.994Z,4.40
2022-11-14T04:47:11.068Z,4.40
2022-11-14T04:49:38.647Z,4.60
2022-11-14T04:52:07.052Z,4.50
2022-11-14T04:54:36.804Z,4.50
2022-11-14T04:57:04.192Z,4.50
2022-11-14T04:59:31.182Z,4.50
2022-11-14T05:02:07.151Z,4.40
2022-11-14T05:04:34.084Z,4.40
2022-11-14T05:07:01.395Z,4.50
2022-11-14T05:09:28.607Z,4.50
2022-11-14T05:11:57.986Z,4.50
2022-11-14T05:14:25.057Z,4.50
2022-11-14T05:16:52.806Z,4.50
2022-11-14T05:19:20.341Z,4.50
2022-11-14T05:21:54.437Z,4.50
2022-11-14T05:24:25.821Z,4.50
2022-11-14T05:26:55.594Z,4.50
2022-11-14T05:29:22.955Z,4.50
2022-11-14T05:31:51.672Z,4.50
2022-11-14T05:34:20.270Z,4.50
2022-11-14T05:36:47.189Z,4.60
2022-11-14T05:39:16.115Z,4.60
2022-11-14T05:41:43.015Z,4.60
2022-11-14T05:44:10.928Z,4.50
2022-11-14T05:46:41.103Z,4.60
2022-11-14T05:49:08.398Z,4.60
2022-11-14T05:51:36.110Z,4.60
2022-11-14T05:54:05.042Z,4.60
2022-11-14T05:56:31.863Z,4.70
2022-11-14T05:59:00.708Z,4.70
2022-11-14T06:01:28.782Z,4.70
2022-11-14T06:03:56.257Z,4.70
2022-11-14T06:06:23.434Z,4.70
2022-11-14T06:08:52.936Z,4.70
2022-11-14T06:11:21.894Z,4.70
2022-11-14T06:13:52.401Z,4.80
2022-11-14T06:16:23.048Z,4.80
2022-11-14T06:18:56.415Z,4.80
2022-11-14T06:21:28.182Z,4.90
2022-11-14T06:23:56.129Z,4.80
2022-11-14T06:26:26.310Z,4.70
2022-11-14T06:28:54.007Z,4.90
2022-11-14T06:31:22.300Z,4.80
2022-11-14T06:33:49.816Z,4.70
2022-11-14T06:36:17.346Z,4.70
2022-11-14T06:38:45.495Z,4.80
2022-11-14T06:41:18.846Z,4.80
2022-11-14T06:43:48.208Z,4.80
2022-11-14T06:46:18.535Z,4.80
2022-11-14T06:48:47.953Z,4.90
2022-11-14T06:51:17.872Z,4.80
2022-11-14T06:53:45.422Z,4.80
2022-11-14T06:56:20.912Z,5.00
2022-11-14T06:58:49.970Z,4.90
2022-11-14T07:01:20.045Z,4.90
2022-11-14T07:03:49.548Z,5.00
2022-11-14T07:06:27.044Z,4.90
2022-11-14T07:08:56.950Z,4.90
2022-11-14T07:11:30.069Z,4.90
2022-11-14T07:14:01.697Z,5.00
2022-11-14T07:16:37.929Z,5.00
2022-11-14T07:19:10.426Z,5.10
2022-11-14T07:21:42.853Z,5.20
2022-11-14T07:24:09.674Z,5.30
2022-11-14T07:26:46.401Z,5.20
2022-11-14T07:29:39.839Z,5.20
2022-11-14T07:32:10.564Z,5.20
2022-11-14T07:34:38.171Z,5.20
2022-11-14T07:37:05.397Z,5.20
2022-11-14T07:39:36.187Z,5.30
2022-11-14T07:42:30.662Z,5.20
2022-11-14T07:45:03.426Z,5.30
2022-11-14T07:47:40.796Z,5.30
2022-11-14T07:50:09.388Z,5.40
2022-11-14T07:52:37.773Z,5.40
2022-11-14T07:55:05.543Z,5.40
2022-11-14T07:57:43.914Z,5.50
2022-11-14T08:00:18.069Z,5.50
2022-11-14T08:02:48.009Z,5.70
2022-11-14T08:05:20.759Z,5.80
2022-11-14T08:07:52.865Z,5.80
2022-11-14T08:10:26.109Z,5.80
2022-11-14T08:16:13.927Z,5.90
2022-11-14T08:21:34.046Z,6.10
2022-11-14T08:26:49.080Z,6.20
2022-11-14T08:29:46.621Z,6.10
2022-11-14T08:32:16.728Z,6.00
2022-11-14T08:34:49.677Z,6.10
2022-11-14T08:37:19.758Z,6.10
2022-11-14T08:39:50.093Z,6.10
2022-11-14T08:42:17.777Z,6.20
2022-11-14T08:44:51.662Z,6.30
2022-11-14T08:47:23.944Z,6.40
2022-11-14T08:49:51.267Z,6.30
2022-11-14T08:52:23.289Z,6.20
2022-11-14T08:54:57.388Z,6.30
2022-11-14T08:57:28.071Z,6.30
2022-11-14T08:59:56.147Z,6.20
2022-11-14T09:02:23.856Z,6.30
2022-11-14T09:04:53.582Z,6.40
2022-11-14T09:07:22.256Z,6.40
2022-11-14T09:09:51.343Z,6.30
2022-11-14T09:12:25.536Z,6.30
2022-11-14T09:14:52.419Z,6.30
2022-11-14T09:17:19.674Z,6.40
2022-11-14T09:19:48.835Z,6.50
2022-11-14T09:22:17.059Z,6.40
2022-11-14T09:24:47.556Z,6.40
2022-11-14T09:27:15.126Z,6.40
2022-11-14T09:29:41.958Z,6.40
2022-11-14T09:32:10.115Z,6.50
2022-11-14T09:34:38.135Z,6.60
2022-11-14T09:37:05.763Z,6.50
2022-11-14T09:39:38.457Z,6.40
2022-11-14T09:42:23.827Z,6.50
2022-11-14T09:45:02.980Z,6.70
2022-11-14T09:47:33.270Z,6.80
2022-11-14T09:50:09.010Z,6.80
2022-11-14T09:52:46.299Z,7.00
2022-11-14T09:55:18.267Z,7.30
2022-11-14T09:57:54.163Z,7.20
2022-11-14T10:00:26.589Z,7.00
2022-11-14T10:03:14.468Z,7.00
2022-11-14T10:05:58.544Z,7.20
2022-11-14T10:09:03.021Z,7.10
2022-11-14T10:11:39.766Z,7.30
2022-11-14T10:14:44.556Z,7.20
2022-11-14T10:17:19.180Z,7.30
2022-11-14T10:20:23.450Z,7.40
2022-11-14T10:23:01.690Z,7.60
2022-11-14T10:25:44.279Z,7.80
2022-11-14T10:28:24.803Z,8.00
2022-11-14T10:31:36.327Z,7.90
2022-11-14T10:34:14.704Z,7.80
2022-11-14T10:37:06.127Z,7.70
2022-11-14T10:39:42.685Z,7.90
2022-11-14T10:42:43.007Z,7.80
2022-11-14T10:45:40.139Z,7.90
2022-11-14T10:48:15.997Z,7.70
2022-11-14T10:50:56.655Z,7.80
2022-11-14T10:53:47.716Z,7.90
2022-11-14T10:56:18.961Z,8.20
2022-11-14T10:58:49.587Z,8.30
2022-11-14T11:01:54.497Z,8.50
2022-11-14T11:04:34.432Z,8.60
2022-11-14T11:07:14.425Z,8.70
2022-11-14T11:09:59.788Z,8.60
2022-11-14T11:12:50.954Z,8.30
2022-11-14T11:15:22.379Z,8.50
2022-11-14T11:18:24.018Z,8.50
2022-11-14T11:21:10.464Z,8.40
2022-11-14T11:23:54.155Z,8.40
2022-11-14T11:26:25.596Z,8.30
2022-11-14T11:29:20.877Z,8.30
2022-11-14T11:31:48.550Z,8.20
2022-11-14T11:34:15.965Z,8.40
2022-11-14T11:36:53.934Z,8.50
2022-11-14T11:39:29.672Z,8.60
2022-11-14T11:42:09.412Z,8.70
2022-11-14T11:44:45.972Z,8.90
2022-11-14T11:47:17.478Z,8.80
2022-11-14T11:49:54.660Z,8.70
2022-11-14T11:52:38.544Z,8.70
2022-11-14T11:55:24.439Z,8.90
2022-11-14T11:58:13.937Z,9.00
2022-11-14T12:00:41.201Z,9.00
2022-11-14T12:03:20.190Z,9.10
2022-11-14T12:06:18.603Z,9.10
2022-11-14T12:09:22.635Z,9.20
2022-11-14T12:11:59.189Z,9.20
2022-11-14T12:14:58.359Z,9.20
2022-11-14T12:17:32.385Z,9.10
2022-11-14T12:20:21.449Z,9.30
2022-11-14T12:23:14.562Z,9.30
2022-11-14T12:26:09.381Z,9.50
2022-11-14T12:28:46.177Z,9.70
2022-11-14T12:31:17.263Z,9.70
2022-11-14T12:33:57.839Z,9.80
2022-11-14T12:36:35.024Z,9.80
2022-11-14T12:39:03.092Z,9.70
2022-11-14T12:41:37.141Z,9.80
2022-11-14T12:44:20.944Z,9.90
2022-11-14T12:47:06.615Z,10.00
2022-11-14T12:49:39.877Z,10.00
2022-11-14T12:52:46.427Z,9.90
2022-11-14T12:55:25.356Z,10.00
2022-11-14T12:58:12.287Z,10.00
2022-11-14T13:01:18.279Z,10.00
2022-11-14T13:04:09.755Z,9.90
2022-11-14T13:06:51.395Z,10.00
2022-11-14T13:09:24.472Z,10.00
2022-11-14T13:12:13.551Z,9.90
2022-11-14T13:15:15.895Z,10.00
2022-11-14T13:18:04.418Z,10.00
2022-11-14T13:21:03.663Z,10.10
2022-11-14T13:23:47.502Z,10.00
2022-11-14T13:26:15.206Z,10.10
2022-11-14T13:28:54.540Z,10.10
2022-11-14T13:31:36.737Z,10.00
2022-11-14T13:34:40.431Z,10.10
2022-11-14T13:37:23.443Z,10.10
2022-11-14T13:40:24.989Z,10.20
2022-11-14T13:43:34.186Z,10.20
2022-11-14T13:46:49.649Z,10.30
2022-11-14T13:49:49.501Z,10.20
2022-11-14T13:52:17.588Z,10.30
2022-11-14T13:54:52.515Z,10.10
2022-11-14T13:57:45.396Z,10.40
2022-11-14T14:00:21.614Z,10.30
2022-11-14T14:03:10.943Z,10.20
2022-11-14T14:06:12.722Z,10.30
2022-11-14T14:09:01.215Z,10.30
2022-11-14T14:11:50.931Z,10.30
2022-11-14T14:14:57.543Z,10.10
2022-11-14T14:18:09.047Z,10.00
2022-11-14T14:20:56.774Z,10.20
2022-11-14T14:23:36.564Z,10.20
2022-11-14T14:26:28.085Z,10.00
2022-11-14T14:29:21.844Z,10.10
2022-11-14T14:31:50.338Z,10.00
2022-11-14T14:34:32.643Z,10.00
2022-11-14T14:36:59.983Z,10.10
2022-11-14T14:39:33.233Z,10.00
2022-11-14T14:42:00.882Z,10.00
2022-11-14T14:44:49.182Z,10.10
2022-11-14T14:47:41.623Z,9.60
2022-11-14T14:50:26.742Z,9.90
2022-11-14T14:53:05.618Z,9.90
2022-11-14T14:55:36.380Z,9.90
2022-11-14T14:58:35.148Z,9.70
2022-11-14T15:04:06.214Z,9.70
2022-11-14T15:06:38.769Z,9.70
2022-11-14T15:09:21.145Z,9.60
2022-11-14T15:12:04.402Z,9.70
2022-11-14T15:14:40.266Z,9.60
2022-11-14T15:19:59.330Z,9.50
2022-11-14T15:22:37.745Z,9.60
2022-11-14T15:25:24.617Z,9.50
2022-11-14T15:28:13.029Z,9.40
2022-11-14T15:31:16.229Z,9.40
2022-11-14T15:33:47.407Z,9.40
2022-11-14T15:36:22.653Z,9.40
2022-11-14T15:39:42.827Z,9.50
2022-11-14T15:42:31.583Z,9.40
2022-11-14T15:45:10.173Z,9.40
2022-11-14T15:47:41.038Z,9.30
2022-11-14T15:50:17.248Z,9.30
2022-11-14T15:52:58.558Z,9.20
2022-11-14T15:55:26.683Z,9.10
2022-11-14T15:58:13.608Z,9.20
2022-11-14T16:00:51.345Z,9.30
2022-11-14T16:03:20.571Z,9.20
2022-11-14T16:05:56.115Z,9.30
2022-11-14T16:08:24.502Z,9.90
2022-11-14T16:10:51.603Z,9.40
2022-11-14T16:13:21.031Z,9.20
2022-11-14T16:15:56.015Z,9.10
2022-11-14T16:18:25.841Z,9.20
2022-11-14T16:20:53.053Z,9.20
2022-11-14T16:23:22.494Z,9.10
2022-11-14T16:25:51.379Z,9.00
2022-11-14T16:28:18.856Z,8.90
2022-11-14T16:30:48.204Z,8.90
2022-11-14T16:33:15.428Z,8.90
2022-11-14T16:35:42.830Z,8.80
2022-11-14T16:38:13.528Z,8.80
2022-11-14T16:40:47.512Z,8.90
2022-11-14T16:43:16.974Z,8.80
2022-11-14T16:45:44.354Z,8.80
2022-11-14T16:48:14.412Z,8.80
2022-11-14T16:50:42.819Z,8.60
2022-11-14T16:53:15.732Z,8.60
2022-11-14T16:55:47.087Z,8.60
2022-11-14T16:58:41.548Z,8.50
2022-11-14T17:04:05.515Z,8.40
2022-11-14T17:06:39.556Z,8.50
2022-11-14T17:09:25.930Z,8.50
2022-11-14T17:12:28.130Z,8.60
2022-11-14T17:17:57.595Z,8.40
2022-11-14T17:20:41.649Z,8.40
2022-11-14T17:26:43.316Z,8.40
2022-11-14T17:29:18.357Z,8.30
2022-11-14T17:32:06.714Z,8.30
2022-11-14T17:40:15.280Z,8.20
2022-11-14T17:42:50.146Z,8.10
2022-11-14T17:48:07.651Z,8.00
2022-11-14T17:58:55.745Z,8.60
2022-11-14T18:12:34.952Z,7.80
2022-11-14T18:20:48.561Z,7.50
2022-11-14T18:28:57.322Z,7.50
2022-11-14T18:34:37.356Z,7.30
2022-11-14T18:43:21.610Z,7.50
2022-11-14T18:48:37.884Z,7.30
2022-11-14T19:02:13.617Z,7.40
2022-11-14T19:04:48.322Z,7.30
2022-11-14T19:10:10.900Z,7.30
2022-11-14T19:12:44.888Z,7.20
2022-11-14T19:18:16.876Z,7.00
2022-11-14T19:20:47.963Z,7.30
2022-11-14T19:23:15.084Z,7.00
2022-11-14T19:25:43.632Z,7.00
2022-11-14T19:28:17.521Z,6.90
2022-11-14T19:30:46.158Z,6.90
2022-11-14T19:33:15.215Z,6.90
2022-11-14T19:35:42.471Z,6.90
2022-11-14T19:38:18.457Z,6.90
2022-11-14T19:40:51.771Z,6.90
2022-11-14T19:43:22.815Z,6.90
2022-11-14T19:45:55.896Z,6.80
2022-11-14T19:48:23.252Z,6.80
2022-11-14T19:51:09.943Z,6.80
2022-11-14T19:53:41.401Z,6.80
2022-11-14T19:56:14.021Z,6.70
2022-11-14T19:58:44.822Z,6.70
2022-11-14T20:01:19.756Z,6.70
2022-11-14T20:04:04.536Z,6.70
2022-11-14T20:06:35.952Z,6.60
2022-11-14T20:09:14.532Z,6.70
2022-11-14T20:11:43.841Z,6.70
2022-11-14T20:14:13.196Z,6.70
2022-11-14T20:16:49.830Z,6.70
2022-11-14T20:19:17.857Z,6.70
2022-11-14T20:21:47.184Z,6.60
2022-11-14T20:24:25.424Z,6.60
2022-11-14T20:26:56.820Z,6.60
2022-11-14T20:29:24.950Z,6.50
2022-11-14T20:31:53.251Z,6.50
2022-11-14T20:34:22.535Z,6.70
2022-11-14T20:39:40.485Z,6.70
2022-11-14T20:42:11.966Z,6.70
2022-11-14T20:44:40.821Z,6.80
2022-11-14T20:47:11.065Z,6.70
2022-11-14T20:49:39.086Z,6.80
2022-11-14T20:52:09.929Z,6.70
2022-11-14T20:54:38.406Z,6.90
2022-11-14T20:57:06.984Z,7.10
2022-11-14T20:59:37.836Z,7.00
2022-11-14T21:02:05.965Z,6.70
2022-11-14T21:04:36.390Z,6.80
2022-11-14T21:07:09.037Z,6.70
2022-11-14T21:09:40.192Z,6.60
2022-11-14T21:12:09.517Z,6.50
2022-11-14T21:14:36.999Z,6.50
2022-11-14T21:17:07.605Z,6.60
2022-11-14T21:19:37.247Z,6.80
2022-11-14T21:22:04.888Z,6.80
2022-11-14T21:24:39.974Z,6.80
2022-11-14T21:27:09.449Z,7.30
2022-11-14T21:29:40.113Z,6.50
2022-11-14T21:32:09.682Z,6.60
2022-11-14T21:34:36.590Z,6.50
2022-11-14T21:37:21.771Z,6.40
2022-11-14T21:39:50.778Z,6.60
2022-11-14T21:42:20.733Z,6.40
2022-11-14T21:44:49.928Z,6.70
2022-11-14T21:47:20.905Z,6.20
2022-11-14T21:49:48.326Z,6.30
2022-11-14T21:55:02.701Z,6.10
2022-11-14T21:57:29.507Z,6.10
2022-11-14T21:59:57.015Z,6.20
2022-11-14T22:02:43.243Z,6.00
2022-11-14T22:05:15.725Z,6.30
2022-11-14T22:07:43.124Z,5.90
2022-11-14T22:10:12.215Z,5.70
2022-11-14T22:12:42.534Z,5.50
2022-11-14T22:17:57.162Z,5.60
2022-11-14T22:20:25.568Z,5.80
2022-11-14T22:22:56.143Z,5.70
2022-11-14T22:25:25.184Z,5.80
2022-11-14T22:27:56.615Z,5.70
2022-11-14T22:33:05.886Z,5.70
2022-11-14T22:35:38.939Z,5.80
2022-11-14T22:38:13.583Z,5.70
2022-11-14T22:40:43.296Z,5.90
2022-11-14T22:43:11.093Z,5.60
2022-11-14T22:45:41.354Z,5.60
2022-11-14T22:48:10.902Z,5.60
2022-11-14T22:50:40.129Z,5.60
2022-11-14T22:53:09.174Z,5.60
2022-11-14T22:55:37.799Z,5.50
2022-11-14T22:58:11.998Z,5.40
2022-11-14T23:00:51.050Z,5.80
2022-11-14T23:03:36.303Z,5.40
2022-11-14T23:06:42.334Z,5.40
2022-11-14T23:09:26.050Z,5.30
2022-11-14T23:11:55.280Z,5.40
2022-11-14T23:14:27.523Z,5.40
2022-11-14T23:17:02.459Z,5.90
2022-11-14T23:19:33.735Z,5.50
2022-11-14T23:22:01.284Z,6.70
2022-11-14T23:24:29.610Z,5.50
2022-11-14T23:26:56.921Z,5.40
2022-11-14T23:29:25.306Z,5.40
2022-11-14T23:32:04.729Z,5.40
2022-11-14T23:34:36.859Z,5.70
2022-11-14T23:37:04.893Z,5.90
2022-11-14T23:39:32.077Z,5.30
2022-11-14T23:41:58.911Z,5.60
2022-11-14T23:44:26.888Z,5.40
2022-11-14T23:46:56.448Z,5.40
2022-11-14T23:49:25.132Z,5.50
2022-11-14T23:52:00.561Z,5.30
2022-11-14T23:54:29.627Z,5.30
2022-11-14T23:57:00.046Z,5.20
2022-11-14T23:59:31.658Z,5.10
